createdAt,value
2022-11-29T00:02:08.000Z,17.30
2022-11-29T00:05:14.568Z,20.60
2022-11-29T00:08:21.806Z,16.50
2022-11-29T00:11:29.069Z,18.40
2022-11-29T00:14:35.631Z,16.20
2022-11-29T00:17:42.942Z,19.70
2022-11-29T00:20:49.753Z,18.60
2022-11-29T00:23:56.631Z,19.70
2022-11-29T00:27:03.852Z,19.30
2022-11-29T00:30:10.532Z,21.50
2022-11-29T00:33:17.404Z,19.40
2022-11-29T00:36:24.638Z,18.60
2022-11-29T00:39:31.594Z,20.10
2022-11-29T00:42:38.614Z,18.40
2022-11-29T00:45:45.444Z,17.00
2022-11-29T00:48:52.646Z,19.90
2022-11-29T00:51:59.497Z,18.30
2022-11-29T00:55:06.544Z,18.90
2022-11-29T00:58:13.580Z,22.00
2022-11-29T01:01:20.515Z,19.50
2022-11-29T01:04:27.351Z,18.80
2022-11-29T01:07:34.748Z,19.20
2022-11-29T01:10:41.599Z,21.80
2022-11-29T01:13:48.467Z,17.50
2022-11-29T01:16:55.688Z,18.50
2022-11-29T01:20:02.191Z,19.00
2022-11-29T01:23:09.492Z,21.10
2022-11-29T01:26:16.582Z,17.50
2022-11-29T01:29:23.132Z,16.40
2022-11-29T01:32:30.343Z,18.90
2022-11-29T01:35:37.246Z,18.90
2022-11-29T01:38:44.094Z,18.40
2022-11-29T01:41:51.164Z,20.70
2022-11-29T01:44:58.054Z,18.40
2022-11-29T01:47:59.134Z,18.50
2022-11-29T01:51:07.315Z,18.50
2022-11-29T01:54:14.414Z,18.30
2022-11-29T01:57:21.667Z,19.30
2022-11-29T02:00:29.167Z,18.60
2022-11-29T02:03:35.928Z,18.20
2022-11-29T02:06:43.577Z,18.20
2022-11-29T02:09:51.069Z,20.20
2022-11-29T02:12:57.829Z,19.10
2022-11-29T02:16:05.669Z,18.80
2022-11-29T02:19:12.480Z,19.30
2022-11-29T02:22:20.338Z,17.50
2022-11-29T02:25:27.609Z,19.70
2022-11-29T02:28:34.835Z,17.10
2022-11-29T02:31:42.549Z,17.00
2022-11-29T02:34:49.426Z,21.10
2022-11-29T02:37:56.833Z,19.90
2022-11-29T02:41:04.242Z,20.20
2022-11-29T02:44:11.524Z,21.10
2022-11-29T02:47:18.784Z,21.10
2022-11-29T02:50:26.854Z,18.80
2022-11-29T02:53:33.865Z,23.10
2022-11-29T02:56:41.005Z,23.70
2022-11-29T02:59:48.015Z,22.10
2022-11-29T03:02:55.290Z,18.60
2022-11-29T03:06:02.977Z,20.30
2022-11-29T03:09:09.856Z,20.60
2022-11-29T03:12:17.426Z,24.60
2022-11-29T03:15:25.127Z,22.90
2022-11-29T03:18:31.919Z,23.40
2022-11-29T03:21:39.599Z,22.80
2022-11-29T03:24:46.697Z,21.60
2022-11-29T03:27:54.540Z,22.80
2022-11-29T03:31:01.858Z,22.40
2022-11-29T03:34:08.980Z,21.20
2022-11-29T03:37:16.571Z,24.90
2022-11-29T03:40:23.831Z,20.40
2022-11-29T03:43:31.251Z,21.80
2022-11-29T03:46:39.119Z,21.20
2022-11-29T03:49:46.913Z,21.90
2022-11-29T03:52:54.584Z,21.30
2022-11-29T03:56:02.248Z,22.90
2022-11-29T03:59:09.034Z,22.60
2022-11-29T04:02:16.849Z,22.30
2022-11-29T04:05:23.655Z,19.00
2022-11-29T04:08:31.454Z,25.70
2022-11-29T04:11:38.837Z,19.20
2022-11-29T04:14:46.622Z,23.10
2022-11-29T04:17:54.037Z,22.40
2022-11-29T04:21:01.771Z,21.90
2022-11-29T04:24:09.178Z,22.40
2022-11-29T04:27:16.458Z,22.00
2022-11-29T04:30:23.651Z,21.30
2022-11-29T04:33:31.038Z,22.60
2022-11-29T04:36:38.920Z,25.00
2022-11-29T04:39:45.771Z,23.00
2022-11-29T04:42:53.291Z,23.70
2022-11-29T04:46:01.097Z,23.60
2022-11-29T04:49:07.842Z,24.70
2022-11-29T04:52:15.640Z,22.20
2022-11-29T04:55:29.231Z,25.00
2022-11-29T04:58:27.147Z,21.80
2022-11-29T05:01:34.952Z,22.80
2022-11-29T05:04:42.181Z,24.00
2022-11-29T05:07:50.200Z,24.50
2022-11-29T05:10:57.386Z,23.90
2022-11-29T05:14:04.723Z,25.20
2022-11-29T05:17:12.004Z,21.90
2022-11-29T05:20:19.116Z,23.70
2022-11-29T05:23:26.839Z,24.20
2022-11-29T05:26:34.033Z,26.80
2022-11-29T05:29:41.301Z,25.50
2022-11-29T05:32:48.529Z,27.30
2022-11-29T05:35:56.167Z,26.10
2022-11-29T05:39:03.040Z,25.50
2022-11-29T05:42:10.759Z,25.20
2022-11-29T05:45:17.570Z,24.50
2022-11-29T05:48:25.279Z,26.70
2022-11-29T05:51:33.121Z,25.40
2022-11-29T05:54:40.009Z,29.60
2022-11-29T05:57:47.650Z,26.90
2022-11-29T06:00:54.534Z,28.70
2022-11-29T06:04:02.153Z,28.10
2022-11-29T06:07:09.384Z,31.60
2022-11-29T06:10:16.198Z,29.70
2022-11-29T06:13:23.566Z,29.50
2022-11-29T06:16:31.570Z,27.10
2022-11-29T06:19:38.365Z,26.90
2022-11-29T06:22:46.228Z,27.70
2022-11-29T06:25:53.026Z,26.30
2022-11-29T06:29:00.521Z,27.20
2022-11-29T06:32:07.928Z,30.30
2022-11-29T06:35:15.346Z,26.30
2022-11-29T06:38:22.790Z,27.70
2022-11-29T06:41:30.388Z,29.50
2022-11-29T06:44:37.654Z,31.80
2022-11-29T06:47:44.991Z,27.40
2022-11-29T06:50:52.110Z,27.70
2022-11-29T06:53:59.243Z,29.70
2022-11-29T06:57:06.801Z,28.60
2022-11-29T07:00:13.802Z,34.50
2022-11-29T07:03:20.999Z,26.60
2022-11-29T07:06:28.572Z,30.50
2022-11-29T07:09:35.272Z,28.40
2022-11-29T07:12:42.874Z,29.00
2022-11-29T07:15:49.651Z,29.60
2022-11-29T07:18:57.375Z,28.50
2022-11-29T07:22:04.694Z,31.00
2022-11-29T07:25:11.804Z,29.60
2022-11-29T07:28:19.115Z,33.20
2022-11-29T07:31:26.370Z,30.30
2022-11-29T07:34:33.697Z,29.00
2022-11-29T07:37:41.737Z,31.20
2022-11-29T07:40:49.117Z,32.80
2022-11-29T07:43:56.520Z,30.30
2022-11-29T07:47:04.738Z,29.80
2022-11-29T07:50:11.840Z,31.80
2022-11-29T07:53:19.870Z,31.90
2022-11-29T07:56:27.079Z,34.40
2022-11-29T07:59:34.700Z,30.30
2022-11-29T08:02:42.372Z,28.90
2022-11-29T08:05:49.380Z,31.70
2022-11-29T08:08:57.319Z,32.20
2022-11-29T08:12:05.544Z,36.20
2022-11-29T08:15:12.513Z,32.20
2022-11-29T08:18:20.382Z,32.10
2022-11-29T08:21:27.382Z,34.50
2022-11-29T08:24:35.330Z,34.90
2022-11-29T08:27:42.885Z,32.80
2022-11-29T08:30:50.446Z,33.20
2022-11-29T08:33:57.856Z,32.60
2022-11-29T08:37:06.214Z,32.20
2022-11-29T08:40:13.048Z,29.50
2022-11-29T08:43:20.627Z,30.60
2022-11-29T08:46:27.388Z,28.80
2022-11-29T08:49:34.930Z,30.60
2022-11-29T08:52:42.487Z,36.90
2022-11-29T08:55:49.212Z,32.00
2022-11-29T08:58:56.789Z,30.10
2022-11-29T09:02:03.528Z,31.60
2022-11-29T09:05:11.543Z,31.10
2022-11-29T09:08:18.772Z,30.10
2022-11-29T09:11:25.971Z,32.00
2022-11-29T09:14:33.621Z,30.70
2022-11-29T09:17:40.882Z,30.60
2022-11-29T09:20:48.062Z,33.10
2022-11-29T09:23:55.418Z,30.60
2022-11-29T09:27:02.505Z,30.60
2022-11-29T09:30:10.155Z,29.60
2022-11-29T09:33:17.526Z,31.20
2022-11-29T09:36:28.436Z,32.10
2022-11-29T09:39:25.577Z,35.20
2022-11-29T09:42:32.864Z,27.90
2022-11-29T09:45:40.125Z,28.60
2022-11-29T09:48:47.130Z,29.70
2022-11-29T09:51:54.368Z,30.70
2022-11-29T09:55:01.970Z,29.40
2022-11-29T09:58:09.449Z,32.40
2022-11-29T10:01:17.137Z,32.10
2022-11-29T10:04:24.136Z,32.40
2022-11-29T10:07:31.782Z,28.90
2022-11-29T10:10:39.219Z,29.30
2022-11-29T10:13:46.492Z,33.90
2022-11-29T10:16:53.577Z,29.90
2022-11-29T10:20:01.132Z,27.80
2022-11-29T10:23:07.920Z,29.50
2022-11-29T10:26:15.253Z,32.10
2022-11-29T10:29:22.553Z,32.50
2022-11-29T10:32:29.801Z,32.70
2022-11-29T10:35:37.014Z,32.60
2022-11-29T10:38:44.047Z,31.20
2022-11-29T10:41:51.276Z,33.30
2022-11-29T10:44:58.573Z,34.00
2022-11-29T10:48:06.026Z,34.40
2022-11-29T10:51:13.112Z,32.20
2022-11-29T10:54:20.148Z,33.00
2022-11-29T10:57:27.558Z,32.30
2022-11-29T11:00:34.389Z,32.60
2022-11-29T11:03:41.789Z,35.90
2022-11-29T11:06:48.869Z,36.50
2022-11-29T11:09:56.030Z,43.30
2022-11-29T11:13:03.551Z,39.30
2022-11-29T11:16:10.554Z,37.70
2022-11-29T11:19:17.609Z,40.60
2022-11-29T11:22:25.043Z,42.80
2022-11-29T11:25:31.793Z,41.20
2022-11-29T11:28:39.182Z,40.40
2022-11-29T11:31:46.612Z,46.00
2022-11-29T11:34:53.402Z,41.20
2022-11-29T11:38:00.929Z,40.70
2022-11-29T11:41:08.376Z,41.20
2022-11-29T11:44:26.357Z,40.10
2022-11-29T11:47:20.057Z,41.60
2022-11-29T11:50:27.627Z,45.70
2022-11-29T11:53:34.348Z,47.80
2022-11-29T11:56:41.780Z,50.50
2022-11-29T11:59:48.899Z,48.60
2022-11-29T12:02:56.164Z,50.90
2022-11-29T12:06:03.861Z,53.00
2022-11-29T12:09:11.111Z,55.90
2022-11-29T12:12:18.324Z,54.80
2022-11-29T12:15:25.372Z,52.30
2022-11-29T12:18:32.783Z,56.30
2022-11-29T12:21:39.973Z,57.70
2022-11-29T12:24:47.529Z,55.80
2022-11-29T12:27:56.165Z,64.60
2022-11-29T12:31:03.405Z,62.00
2022-11-29T12:34:10.384Z,62.90
2022-11-29T12:37:17.905Z,54.40
2022-11-29T12:40:24.820Z,56.60
2022-11-29T12:43:32.283Z,57.20
2022-11-29T12:46:39.878Z,59.80
2022-11-29T12:49:46.676Z,62.40
2022-11-29T12:52:54.196Z,57.40
2022-11-29T12:56:01.309Z,73.30
2022-11-29T12:59:08.430Z,64.20
2022-11-29T13:02:15.966Z,62.90
2022-11-29T13:05:23.179Z,67.00
2022-11-29T13:08:30.427Z,58.50
2022-11-29T13:11:38.050Z,62.80
2022-11-29T13:14:45.265Z,60.40
2022-11-29T13:17:52.273Z,62.50
2022-11-29T13:20:59.542Z,56.80
2022-11-29T13:24:08.844Z,62.10
2022-11-29T13:27:16.565Z,60.50
2022-11-29T13:30:23.834Z,58.10
2022-11-29T13:33:31.377Z,60.70
2022-11-29T13:36:38.163Z,58.20
2022-11-29T13:39:45.375Z,64.20
2022-11-29T13:42:52.886Z,63.00
2022-11-29T13:45:59.758Z,62.10
2022-11-29T13:49:07.247Z,62.30
2022-11-29T13:52:14.629Z,66.50
2022-11-29T13:55:21.589Z,67.80
2022-11-29T13:58:29.270Z,91.10
2022-11-29T14:01:36.448Z,67.90
2022-11-29T14:04:43.985Z,72.50
2022-11-29T14:07:52.216Z,75.40
2022-11-29T14:10:58.901Z,91.90
2022-11-29T14:14:06.185Z,69.30
2022-11-29T14:17:13.532Z,72.90
2022-11-29T14:20:20.280Z,70.20
2022-11-29T14:23:27.583Z,71.00
2022-11-29T14:26:34.767Z,69.20
2022-11-29T14:29:41.442Z,78.20
2022-11-29T14:32:48.561Z,71.00
2022-11-29T14:35:55.674Z,72.00
2022-11-29T14:39:02.806Z,75.70
2022-11-29T14:42:09.997Z,78.00
2022-11-29T14:45:17.106Z,81.40
2022-11-29T14:48:24.686Z,77.60
2022-11-29T14:51:31.514Z,79.50
2022-11-29T14:54:39.188Z,79.10
2022-11-29T14:57:47.016Z,79.40
2022-11-29T15:00:54.057Z,77.90
2022-11-29T15:04:01.743Z,86.70
2022-11-29T15:07:09.030Z,83.70
2022-11-29T15:10:16.471Z,79.80
2022-11-29T15:13:24.250Z,80.10
2022-11-29T15:16:31.299Z,79.90
2022-11-29T15:19:38.651Z,79.90
2022-11-29T15:22:46.322Z,81.20
2022-11-29T15:25:53.353Z,80.50
2022-11-29T15:29:01.280Z,75.00
2022-11-29T15:32:08.625Z,81.40
2022-11-29T15:35:15.884Z,78.50
2022-11-29T15:38:22.995Z,83.50
2022-11-29T15:41:30.037Z,79.10
2022-11-29T15:44:37.114Z,77.40
2022-11-29T15:47:44.372Z,73.90
2022-11-29T15:50:51.876Z,77.00
2022-11-29T15:54:11.782Z,66.60
2022-11-29T15:57:03.227Z,69.80
2022-11-29T16:00:10.698Z,74.70
2022-11-29T16:03:17.800Z,74.40
2022-11-29T16:06:25.038Z,81.60
2022-11-29T16:09:32.489Z,75.40
2022-11-29T16:12:39.239Z,80.10
2022-11-29T16:15:46.796Z,82.60
2022-11-29T16:18:54.330Z,84.70
2022-11-29T16:22:01.163Z,84.90
2022-11-29T16:25:08.594Z,80.40
2022-11-29T16:28:15.801Z,92.90
2022-11-29T16:31:22.817Z,85.30
2022-11-29T16:34:30.171Z,90.30
2022-11-29T16:37:37.392Z,87.70
2022-11-29T16:40:44.626Z,91.60
2022-11-29T16:43:51.646Z,102.60
2022-11-29T16:46:59.135Z,90.80
2022-11-29T16:50:06.275Z,93.50
2022-11-29T16:53:13.326Z,100.00
2022-11-29T16:56:20.868Z,101.10
2022-11-29T16:59:28.501Z,109.50
2022-11-29T17:02:35.774Z,111.00
2022-11-29T17:05:44.947Z,112.00
2022-11-29T17:08:51.817Z,123.70
2022-11-29T17:11:59.040Z,113.50
2022-11-29T17:15:06.319Z,110.90
2022-11-29T17:18:13.130Z,125.90
2022-11-29T17:21:20.622Z,110.30
2022-11-29T17:24:27.945Z,116.70
2022-11-29T17:27:35.179Z,113.40
2022-11-29T17:30:42.982Z,119.50
2022-11-29T17:33:50.147Z,112.10
2022-11-29T17:36:57.432Z,107.30
2022-11-29T17:40:04.692Z,109.60
2022-11-29T17:43:11.884Z,105.50
2022-11-29T17:46:18.829Z,114.00
2022-11-29T17:49:25.964Z,108.50
2022-11-29T17:52:33.582Z,113.50
2022-11-29T17:55:40.966Z,109.90
2022-11-29T17:58:48.247Z,107.70
2022-11-29T18:01:55.996Z,105.80
2022-11-29T18:05:02.865Z,109.50
2022-11-29T18:08:10.251Z,113.20
2022-11-29T18:11:18.119Z,110.20
2022-11-29T18:14:25.029Z,112.00
2022-11-29T18:17:32.549Z,122.90
2022-11-29T18:20:39.767Z,115.90
2022-11-29T18:23:46.701Z,115.60
2022-11-29T18:26:54.341Z,128.00
2022-11-29T18:30:01.511Z,117.60
2022-11-29T18:33:08.370Z,119.80
2022-11-29T18:36:16.122Z,126.30
2022-11-29T18:39:23.540Z,123.70
2022-11-29T18:42:30.811Z,107.40
2022-11-29T18:45:38.446Z,116.80
2022-11-29T18:48:45.752Z,117.20
2022-11-29T18:51:53.043Z,100.30
2022-11-29T18:55:00.164Z,111.60
2022-11-29T18:58:07.755Z,114.90
2022-11-29T19:01:15.123Z,105.40
2022-11-29T19:04:22.388Z,97.50
2022-11-29T19:07:29.700Z,100.60
2022-11-29T19:10:36.897Z,105.30
2022-11-29T19:13:44.031Z,93.30
2022-11-29T19:16:51.542Z,98.70
2022-11-29T19:19:58.327Z,102.80
2022-11-29T19:23:06.239Z,95.00
2022-11-29T19:26:13.459Z,97.20
2022-11-29T19:29:20.331Z,96.80
2022-11-29T19:32:27.957Z,96.90
2022-11-29T19:35:35.045Z,96.70
2022-11-29T19:38:41.901Z,95.90
2022-11-29T19:41:49.471Z,96.40
2022-11-29T19:48:00.872Z,102.50
2022-11-29T19:51:08.493Z,96.80
2022-11-29T19:54:15.494Z,88.10
2022-11-29T19:57:22.653Z,90.50
2022-11-29T20:00:30.263Z,95.30
2022-11-29T20:03:37.226Z,89.00
2022-11-29T20:06:44.695Z,85.70
2022-11-29T20:09:52.082Z,88.90
2022-11-29T20:12:58.906Z,90.90
2022-11-29T20:16:06.249Z,89.10
2022-11-29T20:19:13.548Z,88.70
2022-11-29T20:22:20.949Z,87.60
2022-11-29T20:25:27.850Z,81.60
2022-11-29T20:28:34.988Z,87.70
2022-11-29T20:31:49.100Z,96.90
2022-11-29T20:34:45.889Z,98.40
2022-11-29T20:37:53.548Z,86.30
2022-11-29T20:41:02.950Z,94.50
2022-11-29T20:44:10.168Z,86.90
2022-11-29T20:47:17.490Z,99.30
2022-11-29T20:50:24.927Z,100.00
2022-11-29T20:53:31.821Z,92.30
2022-11-29T20:56:39.912Z,92.70
2022-11-29T20:59:47.909Z,93.50
2022-11-29T21:02:55.689Z,90.40
2022-11-29T21:06:03.856Z,85.30
2022-11-29T21:09:10.705Z,95.80
2022-11-29T21:12:17.886Z,84.90
2022-11-29T21:15:24.825Z,88.20
2022-11-29T21:18:32.496Z,88.90
2022-11-29T21:21:40.096Z,92.40
2022-11-29T21:24:47.565Z,83.50
2022-11-29T21:27:54.880Z,82.30
2022-11-29T21:31:02.094Z,81.60
2022-11-29T21:34:09.099Z,77.80
2022-11-29T21:37:16.239Z,79.90
2022-11-29T21:40:23.277Z,81.80
2022-11-29T21:44:04.509Z,82.50
2022-11-29T21:46:35.247Z,76.50
2022-11-29T21:49:42.280Z,78.40
2022-11-29T21:52:49.792Z,77.20
2022-11-29T21:55:56.533Z,84.60
2022-11-29T21:59:03.933Z,78.90
2022-11-29T22:02:11.425Z,71.70
2022-11-29T22:05:18.212Z,76.90
2022-11-29T22:08:25.704Z,74.20
2022-11-29T22:11:33.114Z,73.80
2022-11-29T22:14:39.884Z,73.30
2022-11-29T22:17:47.515Z,74.70
2022-11-29T22:20:54.795Z,66.80
2022-11-29T22:24:01.646Z,71.50
2022-11-29T22:27:09.018Z,71.90
2022-11-29T22:30:15.856Z,67.60
2022-11-29T22:33:23.317Z,72.60
2022-11-29T22:36:30.837Z,72.40
2022-11-29T22:39:37.595Z,69.50
2022-11-29T22:42:45.242Z,71.50
2022-11-29T22:45:52.720Z,66.30
2022-11-29T22:48:59.427Z,70.00
2022-11-29T22:52:06.932Z,70.60
2022-11-29T22:55:14.121Z,66.20
2022-11-29T22:58:21.273Z,61.20
2022-11-29T23:01:28.725Z,60.70
2022-11-29T23:04:35.963Z,62.60
2022-11-29T23:07:43.013Z,61.20
2022-11-29T23:10:50.496Z,61.80
2022-11-29T23:13:57.723Z,64.40
2022-11-29T23:17:04.734Z,64.00
2022-11-29T23:20:12.468Z,68.10
2022-11-29T23:23:19.486Z,70.10
2022-11-29T23:26:26.508Z,73.80
2022-11-29T23:29:33.705Z,68.80
2022-11-29T23:32:41.256Z,68.70
2022-11-29T23:35:48.316Z,67.60
2022-11-29T23:38:55.508Z,69.70
2022-11-29T23:42:02.749Z,64.70
2022-11-29T23:45:09.838Z,67.30
2022-11-29T23:48:16.898Z,77.30
2022-11-29T23:51:24.128Z,69.40
2022-11-29T23:54:31.470Z,75.20
2022-11-29T23:57:38.709Z,74.40
